sensor_id;sensor_type;location;lat;lon;timestamp;P1;durP1;ratioP1;P2;durP2;ratioP2
13687;SDS011;6916;51.504;7.416;2023-07-13T00:02:08;4.25;;;0.88;;
13687;SDS011;6916;51.504;7.416;2023-07-13T00:12:30;6.07;;;1.02;;
13687;SDS011;6916;51.504;7.416;2023-07-13T00:22:36;4.10;;;0.73;;
13687;SDS011;6916;51.504;7.416;2023-07-13T00:32:39;3.17;;;0.63;;
13687;SDS011;6916;51.504;7.416;2023-07-13T00:42:41;4.18;;;0.73;;
13687;SDS011;6916;51.504;7.416;2023-07-13T00:52:46;5.50;;;1.00;;
13687;SDS011;6916;51.504;7.416;2023-07-13T01:02:50;3.72;;;0.90;;
13687;SDS011;6916;51.504;7.416;2023-07-13T01:12:53;2.05;;;0.98;;
13687;SDS011;6916;51.504;7.416;2023-07-13T01:22:58;9.40;;;1.52;;
13687;SDS011;6916;51.504;7.416;2023-07-13T01:33:04;3.65;;;0.90;;
13687;SDS011;6916;51.504;7.416;2023-07-13T01:43:07;8.48;;;1.05;;
13687;SDS011;6916;51.504;7.416;2023-07-13T01:53:10;4.30;;;0.80;;
13687;SDS011;6916;51.504;7.416;2023-07-13T02:03:14;3.90;;;1.08;;
13687;SDS011;6916;51.504;7.416;2023-07-13T02:13:20;2.60;;;0.75;;
13687;SDS011;6916;51.504;7.416;2023-07-13T02:23:23;5.10;;;0.80;;
13687;SDS011;6916;51.504;7.416;2023-07-13T02:33:25;2.88;;;1.00;;
13687;SDS011;6916;51.504;7.416;2023-07-13T02:43:28;3.95;;;0.60;;
13687;SDS011;6916;51.504;7.416;2023-07-13T02:53:31;4.75;;;1.00;;
13687;SDS011;6916;51.504;7.416;2023-07-13T03:03:34;7.18;;;1.33;;
13687;SDS011;6916;51.504;7.416;2023-07-13T03:13:38;1.23;;;0.65;;
13687;SDS011;6916;51.504;7.416;2023-07-13T03:23:40;3.10;;;0.73;;
13687;SDS011;6916;51.504;7.416;2023-07-13T03:33:44;1.43;;;0.50;;
13687;SDS011;6916;51.504;7.416;2023-07-13T03:43:48;7.20;;;1.02;;
13687;SDS011;6916;51.504;7.416;2023-07-13T03:53:53;2.85;;;0.63;;
13687;SDS011;6916;51.504;7.416;2023-07-13T04:03:57;5.90;;;1.00;;
13687;SDS011;6916;51.504;7.416;2023-07-13T04:14:05;3.40;;;0.90;;
13687;SDS011;6916;51.504;7.416;2023-07-13T04:24:09;8.55;;;1.38;;
13687;SDS011;6916;51.504;7.416;2023-07-13T04:34:11;5.93;;;1.15;;
13687;SDS011;6916;51.504;7.416;2023-07-13T04:44:14;3.63;;;1.02;;
13687;SDS011;6916;51.504;7.416;2023-07-13T04:54:16;3.72;;;0.88;;
13687;SDS011;6916;51.504;7.416;2023-07-13T05:04:19;6.22;;;1.08;;
13687;SDS011;6916;51.504;7.416;2023-07-13T05:14:21;3.00;;;0.77;;
13687;SDS011;6916;51.504;7.416;2023-07-13T05:24:24;2.78;;;0.85;;
13687;SDS011;6916;51.504;7.416;2023-07-13T05:34:27;6.55;;;1.40;;
13687;SDS011;6916;51.504;7.416;2023-07-13T05:44:30;3.83;;;1.25;;
13687;SDS011;6916;51.504;7.416;2023-07-13T05:54:32;5.82;;;1.27;;
13687;SDS011;6916;51.504;7.416;2023-07-13T06:04:35;6.05;;;1.27;;
13687;SDS011;6916;51.504;7.416;2023-07-13T06:14:37;5.18;;;1.23;;
13687;SDS011;6916;51.504;7.416;2023-07-13T06:24:40;8.43;;;2.15;;
13687;SDS011;6916;51.504;7.416;2023-07-13T06:34:42;8.80;;;2.00;;
13687;SDS011;6916;51.504;7.416;2023-07-13T06:44:45;7.03;;;2.08;;
13687;SDS011;6916;51.504;7.416;2023-07-13T06:54:48;7.65;;;1.52;;
13687;SDS011;6916;51.504;7.416;2023-07-13T07:04:50;6.88;;;1.60;;
13687;SDS011;6916;51.504;7.416;2023-07-13T07:14:53;10.73;;;2.55;;
13687;SDS011;6916;51.504;7.416;2023-07-13T07:24:55;8.52;;;2.13;;
13687;SDS011;6916;51.504;7.416;2023-07-13T07:34:59;8.65;;;2.05;;
13687;SDS011;6916;51.504;7.416;2023-07-13T07:45:01;9.40;;;1.98;;
13687;SDS011;6916;51.504;7.416;2023-07-13T07:55:05;6.45;;;1.73;;
13687;SDS011;6916;51.504;7.416;2023-07-13T08:05:11;6.05;;;1.58;;
13687;SDS011;6916;51.504;7.416;2023-07-13T08:15:17;5.60;;;1.80;;
13687;SDS011;6916;51.504;7.416;2023-07-13T08:25:22;6.85;;;1.95;;
13687;SDS011;6916;51.504;7.416;2023-07-13T08:35:25;6.47;;;1.45;;
13687;SDS011;6916;51.504;7.416;2023-07-13T08:55:50;3.70;;;1.40;;
13687;SDS011;6916;51.504;7.416;2023-07-13T09:05:58;6.97;;;1.83;;
13687;SDS011;6916;51.504;7.416;2023-07-13T09:16:01;5.10;;;1.75;;
13687;SDS011;6916;51.504;7.416;2023-07-13T09:36:32;3.47;;;1.15;;
13687;SDS011;6916;51.504;7.416;2023-07-13T09:46:36;4.65;;;1.75;;
13687;SDS011;6916;51.504;7.416;2023-07-13T09:56:40;5.80;;;1.10;;
13687;SDS011;6916;51.504;7.416;2023-07-13T10:06:44;5.65;;;1.65;;
13687;SDS011;6916;51.504;7.416;2023-07-13T10:16:47;5.68;;;1.60;;
13687;SDS011;6916;51.504;7.416;2023-07-13T10:37:29;3.60;;;1.15;;
13687;SDS011;6916;51.504;7.416;2023-07-13T10:47:43;3.55;;;1.50;;
13687;SDS011;6916;51.504;7.416;2023-07-13T10:57:46;6.65;;;1.73;;
13687;SDS011;6916;51.504;7.416;2023-07-13T11:07:53;4.57;;;1.40;;
13687;SDS011;6916;51.504;7.416;2023-07-13T11:18:00;4.22;;;1.33;;
13687;SDS011;6916;51.504;7.416;2023-07-13T11:48:41;2.15;;;1.15;;
13687;SDS011;6916;51.504;7.416;2023-07-13T11:58:53;4.45;;;1.30;;
13687;SDS011;6916;51.504;7.416;2023-07-13T12:08:58;3.10;;;1.55;;
13687;SDS011;6916;51.504;7.416;2023-07-13T12:19:02;2.92;;;1.00;;
13687;SDS011;6916;51.504;7.416;2023-07-13T12:29:05;5.57;;;1.30;;
13687;SDS011;6916;51.504;7.416;2023-07-13T12:39:25;3.58;;;1.27;;
13687;SDS011;6916;51.504;7.416;2023-07-13T12:49:32;5.32;;;0.90;;
13687;SDS011;6916;51.504;7.416;2023-07-13T12:59:37;1.80;;;1.00;;
13687;SDS011;6916;51.504;7.416;2023-07-13T13:09:40;4.20;;;1.10;;
13687;SDS011;6916;51.504;7.416;2023-07-13T13:19:42;3.72;;;1.20;;
13687;SDS011;6916;51.504;7.416;2023-07-13T13:29:45;3.92;;;1.00;;
13687;SDS011;6916;51.504;7.416;2023-07-13T13:39:49;4.03;;;1.05;;
13687;SDS011;6916;51.504;7.416;2023-07-13T13:50:13;2.90;;;1.20;;
13687;SDS011;6916;51.504;7.416;2023-07-13T14:00:19;6.50;;;1.73;;
13687;SDS011;6916;51.504;7.416;2023-07-13T14:10:22;4.05;;;2.15;;
13687;SDS011;6916;51.504;7.416;2023-07-13T14:20:25;4.20;;;1.42;;
13687;SDS011;6916;51.504;7.416;2023-07-13T14:30:28;2.85;;;1.40;;
13687;SDS011;6916;51.504;7.416;2023-07-13T14:40:31;4.85;;;2.53;;
13687;SDS011;6916;51.504;7.416;2023-07-13T14:50:34;4.18;;;2.00;;
13687;SDS011;6916;51.504;7.416;2023-07-13T15:00:37;9.40;;;3.67;;
13687;SDS011;6916;51.504;7.416;2023-07-13T15:10:40;5.35;;;3.70;;
13687;SDS011;6916;51.504;7.416;2023-07-13T15:20:43;3.80;;;1.95;;
13687;SDS011;6916;51.504;7.416;2023-07-13T15:30:54;7.60;;;3.25;;
13687;SDS011;6916;51.504;7.416;2023-07-13T15:40:56;7.00;;;3.28;;
13687;SDS011;6916;51.504;7.416;2023-07-13T15:51:01;4.97;;;2.97;;
13687;SDS011;6916;51.504;7.416;2023-07-13T16:01:05;6.35;;;3.72;;
13687;SDS011;6916;51.504;7.416;2023-07-13T16:11:12;6.13;;;3.75;;
13687;SDS011;6916;51.504;7.416;2023-07-13T16:21:20;4.63;;;3.00;;
13687;SDS011;6916;51.504;7.416;2023-07-13T16:31:22;3.63;;;1.20;;
13687;SDS011;6916;51.504;7.416;2023-07-13T16:41:25;5.10;;;2.17;;
13687;SDS011;6916;51.504;7.416;2023-07-13T16:51:28;4.40;;;2.17;;
13687;SDS011;6916;51.504;7.416;2023-07-13T17:01:32;6.68;;;2.70;;
13687;SDS011;6916;51.504;7.416;2023-07-13T17:11:35;3.53;;;2.47;;
13687;SDS011;6916;51.504;7.416;2023-07-13T17:21:43;3.22;;;2.92;;
13687;SDS011;6916;51.504;7.416;2023-07-13T17:31:47;5.90;;;3.55;;
13687;SDS011;6916;51.504;7.416;2023-07-13T17:41:53;9.32;;;4.00;;
13687;SDS011;6916;51.504;7.416;2023-07-13T17:51:57;7.93;;;4.55;;
13687;SDS011;6916;51.504;7.416;2023-07-13T18:02:01;8.60;;;4.97;;
13687;SDS011;6916;51.504;7.416;2023-07-13T18:12:04;8.27;;;4.68;;
13687;SDS011;6916;51.504;7.416;2023-07-13T18:22:13;5.85;;;3.97;;
13687;SDS011;6916;51.504;7.416;2023-07-13T18:32:18;4.55;;;4.00;;
13687;SDS011;6916;51.504;7.416;2023-07-13T18:42:25;6.60;;;3.40;;
13687;SDS011;6916;51.504;7.416;2023-07-13T18:52:28;3.95;;;3.10;;
13687;SDS011;6916;51.504;7.416;2023-07-13T19:02:32;5.47;;;3.15;;
13687;SDS011;6916;51.504;7.416;2023-07-13T19:12:35;6.40;;;3.35;;
13687;SDS011;6916;51.504;7.416;2023-07-13T19:22:38;7.10;;;3.60;;
13687;SDS011;6916;51.504;7.416;2023-07-13T19:32:42;7.25;;;3.70;;
13687;SDS011;6916;51.504;7.416;2023-07-13T19:42:46;6.50;;;3.20;;
13687;SDS011;6916;51.504;7.416;2023-07-13T19:52:52;8.68;;;3.63;;
13687;SDS011;6916;51.504;7.416;2023-07-13T20:02:58;4.95;;;3.50;;
13687;SDS011;6916;51.504;7.416;2023-07-13T20:13:01;5.97;;;3.40;;
13687;SDS011;6916;51.504;7.416;2023-07-13T20:23:04;8.00;;;4.60;;
13687;SDS011;6916;51.504;7.416;2023-07-13T20:33:16;4.07;;;2.58;;
13687;SDS011;6916;51.504;7.416;2023-07-13T20:43:21;5.57;;;3.08;;
13687;SDS011;6916;51.504;7.416;2023-07-13T20:53:24;8.98;;;3.13;;
13687;SDS011;6916;51.504;7.416;2023-07-13T21:03:27;2.87;;;2.13;;
13687;SDS011;6916;51.504;7.416;2023-07-13T21:13:30;5.45;;;2.55;;
13687;SDS011;6916;51.504;7.416;2023-07-13T21:23:34;5.90;;;2.20;;
13687;SDS011;6916;51.504;7.416;2023-07-13T21:33:38;5.47;;;2.50;;
13687;SDS011;6916;51.504;7.416;2023-07-13T21:43:41;4.90;;;2.10;;
13687;SDS011;6916;51.504;7.416;2023-07-13T21:53:44;4.35;;;2.10;;
13687;SDS011;6916;51.504;7.416;2023-07-13T22:03:47;4.70;;;2.30;;
13687;SDS011;6916;51.504;7.416;2023-07-13T22:13:53;7.93;;;2.88;;
13687;SDS011;6916;51.504;7.416;2023-07-13T22:23:56;6.18;;;2.40;;
13687;SDS011;6916;51.504;7.416;2023-07-13T22:33:59;3.90;;;2.58;;
13687;SDS011;6916;51.504;7.416;2023-07-13T22:44:01;3.03;;;2.20;;
13687;SDS011;6916;51.504;7.416;2023-07-13T22:54:12;5.97;;;2.42;;
13687;SDS011;6916;51.504;7.416;2023-07-13T23:04:22;5.70;;;3.05;;
13687;SDS011;6916;51.504;7.416;2023-07-13T23:14:27;6.18;;;3.05;;
13687;SDS011;6916;51.504;7.416;2023-07-13T23:24:33;7.20;;;3.20;;
13687;SDS011;6916;51.504;7.416;2023-07-13T23:34:36;6.03;;;2.97;;
13687;SDS011;6916;51.504;7.416;2023-07-13T23:44:39;3.67;;;3.17;;
13687;SDS011;6916;51.504;7.416;2023-07-13T23:54:41;8.30;;;3.72;;
